createdAt,value
2019-04-25T00:00:44.601Z,1008.48
2019-04-25T00:01:44.766Z,1008.46
2019-04-25T00:02:44.783Z,1008.44
2019-04-25T00:03:44.769Z,1008.45
2019-04-25T00:04:45.006Z,1008.49
2019-04-25T00:05:44.761Z,1008.50
2019-04-25T00:06:44.975Z,1008.51
2019-04-25T00:07:44.958Z,1008.49
2019-04-25T00:08:45.235Z,1008.48
2019-04-25T00:09:45.246Z,1008.47
2019-04-25T00:10:45.373Z,1008.47
2019-04-25T00:11:46.559Z,1008.48
2019-04-25T00:12:44.647Z,1008.45
2019-04-25T00:13:44.626Z,1008.43
2019-04-25T00:14:44.585Z,1008.48
2019-04-25T00:15:45.961Z,1008.49
2019-04-25T00:16:45.193Z,1008.50
2019-04-25T00:17:44.613Z,1008.49
2019-04-25T00:18:44.589Z,1008.56
2019-04-25T00:19:44.597Z,1008.57
2019-04-25T00:20:44.822Z,1008.60
2019-04-25T00:21:44.607Z,1008.62
2019-04-25T00:22:44.864Z,1008.65
2019-04-25T00:23:44.980Z,1008.67
2019-04-25T00:24:45.133Z,1008.67
2019-04-25T00:25:45.905Z,1008.68
2019-04-25T00:26:45.170Z,1008.66
2019-04-25T00:27:45.989Z,1008.67
2019-04-25T00:28:45.422Z,1008.69
2019-04-25T00:29:45.738Z,1008.72
2019-04-25T00:30:44.685Z,1008.66
2019-04-25T00:31:45.096Z,1008.64
2019-04-25T00:32:45.341Z,1008.66
2019-04-25T00:33:45.311Z,1008.65
2019-04-25T00:34:45.576Z,1008.63
2019-04-25T00:35:45.730Z,1008.61
2019-04-25T00:36:45.615Z,1008.65
2019-04-25T00:37:45.487Z,1008.65
2019-04-25T00:38:46.594Z,1008.61
2019-04-25T00:39:45.323Z,1008.58
2019-04-25T00:40:44.860Z,1008.58
2019-04-25T00:41:45.491Z,1008.55
2019-04-25T00:42:44.886Z,1008.52
2019-04-25T00:43:45.293Z,1008.55
2019-04-25T00:44:45.040Z,1008.53
2019-04-25T00:45:45.666Z,1008.55
2019-04-25T00:46:46.390Z,1008.53
2019-04-25T00:47:44.755Z,1008.51
2019-04-25T00:48:44.566Z,1008.53
2019-04-25T00:49:45.159Z,1008.54
2019-04-25T00:50:44.625Z,1008.51
2019-04-25T00:51:44.564Z,1008.56
2019-04-25T00:52:44.836Z,1008.56
2019-04-25T00:53:44.675Z,1008.58
2019-04-25T00:54:44.525Z,1008.57
2019-04-25T00:55:44.671Z,1008.59
2019-04-25T00:56:46.067Z,1008.65
2019-04-25T00:57:44.811Z,1008.67
2019-04-25T00:58:45.253Z,1008.67
2019-04-25T00:59:45.463Z,1008.70
2019-04-25T01:00:44.905Z,1008.68
2019-04-25T01:01:46.517Z,1008.70
2019-04-25T01:02:45.291Z,1008.70
2019-04-25T01:03:45.297Z,1008.70
2019-04-25T01:04:45.183Z,1008.75
2019-04-25T01:05:45.519Z,1008.69
2019-04-25T01:06:45.323Z,1008.75
2019-04-25T01:07:44.534Z,1008.80
2019-04-25T01:08:44.513Z,1008.80
2019-04-25T01:09:44.569Z,1008.84
2019-04-25T01:10:44.546Z,1008.79
2019-04-25T01:11:44.545Z,1008.81
2019-04-25T01:12:44.678Z,1008.83
2019-04-25T01:13:44.664Z,1008.81
2019-04-25T01:14:45.714Z,1008.83
2019-04-25T01:15:44.952Z,1008.87
2019-04-25T01:16:45.069Z,1008.88
2019-04-25T01:17:45.396Z,1008.88
2019-04-25T01:18:45.303Z,1008.90
2019-04-25T01:19:45.719Z,1008.86
2019-04-25T01:20:45.373Z,1008.85
2019-04-25T01:21:45.516Z,1008.83
2019-04-25T01:22:45.682Z,1008.83
2019-04-25T01:23:45.716Z,1008.85
2019-04-25T01:24:45.597Z,1008.83
2019-04-25T01:25:45.774Z,1008.85
2019-04-25T01:26:45.866Z,1008.85
2019-04-25T01:27:44.538Z,1008.87
2019-04-25T01:28:44.528Z,1008.86
2019-04-25T01:29:44.577Z,1008.85
2019-04-25T01:30:44.530Z,1008.84
2019-04-25T01:31:44.618Z,1008.84
2019-04-25T01:32:44.887Z,1008.85
2019-04-25T01:33:44.489Z,1008.83
2019-04-25T01:34:44.481Z,1008.84
2019-04-25T01:35:44.867Z,1008.83
2019-04-25T01:36:44.567Z,1008.79
2019-04-25T01:37:44.526Z,1008.80
2019-04-25T01:38:44.867Z,1008.73
2019-04-25T01:39:44.503Z,1008.72
2019-04-25T01:40:44.493Z,1008.70
2019-04-25T01:41:44.553Z,1008.70
2019-04-25T01:42:44.488Z,1008.68
2019-04-25T01:43:44.517Z,1008.68
2019-04-25T01:44:44.546Z,1008.65
2019-04-25T01:45:44.468Z,1008.67
2019-04-25T01:46:44.463Z,1008.66
2019-04-25T01:47:48.876Z,1008.74
2019-04-25T01:48:44.480Z,1008.72
2019-04-25T01:49:44.485Z,1008.72
2019-04-25T01:50:44.505Z,1008.69
2019-04-25T01:51:44.473Z,1008.77
2019-04-25T01:52:44.515Z,1008.80
2019-04-25T01:53:44.481Z,1008.78
2019-04-25T01:54:44.475Z,1008.79
2019-04-25T01:55:53.827Z,1008.81
2019-04-25T01:56:44.561Z,1008.84
2019-04-25T01:57:45.347Z,1008.84
2019-04-25T01:58:44.462Z,1008.84
2019-04-25T01:59:44.497Z,1008.82
2019-04-25T02:00:44.995Z,1008.85
2019-04-25T02:01:44.527Z,1008.84
2019-04-25T02:02:44.506Z,1008.85
2019-04-25T02:03:44.449Z,1008.88
2019-04-25T02:04:44.476Z,1008.84
2019-04-25T02:05:44.526Z,1008.89
2019-04-25T02:06:44.554Z,1008.91
2019-04-25T02:07:44.511Z,1008.93
2019-04-25T02:08:44.473Z,1008.96
2019-04-25T02:09:44.472Z,1008.97
2019-04-25T02:10:44.498Z,1008.95
2019-04-25T02:11:44.493Z,1008.95
2019-04-25T02:12:44.540Z,1008.92
2019-04-25T02:13:44.453Z,1008.95
2019-04-25T02:14:44.499Z,1008.93
2019-04-25T02:15:44.526Z,1008.94
2019-04-25T02:16:44.497Z,1008.91
2019-04-25T02:17:44.491Z,1008.88
2019-04-25T02:18:44.459Z,1008.89
2019-04-25T02:19:44.474Z,1008.90
2019-04-25T02:20:44.502Z,1008.91
2019-04-25T02:21:44.990Z,1008.91
2019-04-25T02:22:44.454Z,1008.94
2019-04-25T02:23:44.426Z,1008.96
2019-04-25T02:24:44.433Z,1009.00
2019-04-25T02:25:44.437Z,1009.01
2019-04-25T02:26:44.428Z,1009.05
2019-04-25T02:27:44.435Z,1009.06
2019-04-25T02:28:44.439Z,1009.03
2019-04-25T02:29:44.777Z,1009.01
2019-04-25T02:30:45.372Z,1009.02
2019-04-25T02:31:45.172Z,1009.07
2019-04-25T02:32:44.447Z,1009.06
2019-04-25T02:33:44.515Z,1009.05
2019-04-25T02:34:45.946Z,1009.08
2019-04-25T02:35:46.766Z,1009.05
2019-04-25T02:36:46.988Z,1009.02
2019-04-25T02:37:45.118Z,1009.03
2019-04-25T02:38:44.425Z,1009.05
2019-04-25T02:39:44.903Z,1009.08
2019-04-25T02:40:45.416Z,1009.05
2019-04-25T02:41:44.637Z,1008.99
2019-04-25T02:42:44.681Z,1009.04
2019-04-25T02:43:45.198Z,1009.01
2019-04-25T02:44:44.589Z,1009.01
2019-04-25T02:45:44.419Z,1009.06
2019-04-25T02:46:44.970Z,1009.06
2019-04-25T02:47:46.291Z,1009.03
2019-04-25T02:48:44.423Z,1009.06
2019-04-25T02:49:44.759Z,1009.03
2019-04-25T02:50:46.228Z,1009.00
2019-04-25T02:51:45.088Z,1009.08
2019-04-25T02:52:44.542Z,1009.06
2019-04-25T02:53:44.768Z,1009.12
2019-04-25T02:54:44.923Z,1009.15
2019-04-25T02:55:44.756Z,1009.16
2019-04-25T02:56:46.670Z,1009.19
2019-04-25T02:57:44.962Z,1009.19
2019-04-25T02:58:44.454Z,1009.22
2019-04-25T02:59:45.077Z,1009.28
2019-04-25T03:00:54.972Z,1009.25
2019-04-25T03:01:44.612Z,1009.36
2019-04-25T03:02:44.633Z,1009.37
2019-04-25T03:03:44.947Z,1009.43
2019-04-25T03:04:44.779Z,1009.47
2019-04-25T03:05:47.186Z,1009.52
2019-04-25T03:06:45.273Z,1009.60
2019-04-25T03:07:44.675Z,1009.60
2019-04-25T03:08:45.029Z,1009.63
2019-04-25T03:09:45.113Z,1009.62
2019-04-25T03:10:44.526Z,1009.58
2019-04-25T03:11:45.038Z,1009.57
2019-04-25T03:12:44.717Z,1009.57
2019-04-25T03:13:44.419Z,1009.56
2019-04-25T03:14:44.719Z,1009.54
2019-04-25T03:15:44.459Z,1009.54
2019-04-25T03:16:44.987Z,1009.54
2019-04-25T03:17:44.602Z,1009.50
2019-04-25T03:18:44.424Z,1009.53
2019-04-25T03:19:44.375Z,1009.60
2019-04-25T03:20:45.207Z,1009.62
2019-04-25T03:21:45.191Z,1009.63
2019-04-25T03:22:44.611Z,1009.65
2019-04-25T03:23:46.370Z,1009.66
2019-04-25T03:24:45.852Z,1009.65
2019-04-25T03:25:44.378Z,1009.64
2019-04-25T03:26:44.416Z,1009.64
2019-04-25T03:27:44.341Z,1009.65
2019-04-25T03:28:44.354Z,1009.67
2019-04-25T03:29:45.743Z,1009.69
2019-04-25T03:30:45.022Z,1009.72
2019-04-25T03:31:45.135Z,1009.72
2019-04-25T03:32:45.006Z,1009.70
2019-04-25T03:33:45.970Z,1009.69
2019-04-25T03:34:44.318Z,1009.70
2019-04-25T03:35:44.321Z,1009.65
2019-04-25T03:36:44.389Z,1009.68
2019-04-25T03:37:44.357Z,1009.69
2019-04-25T03:38:44.351Z,1009.68
2019-04-25T03:39:44.353Z,1009.69
2019-04-25T03:40:44.335Z,1009.70
2019-04-25T03:41:45.553Z,1009.68
2019-04-25T03:42:44.368Z,1009.70
2019-04-25T03:43:44.340Z,1009.72
2019-04-25T03:44:44.305Z,1009.71
2019-04-25T03:45:45.311Z,1009.70
2019-04-25T03:46:44.355Z,1009.67
2019-04-25T03:47:46.209Z,1009.64
2019-04-25T03:48:44.642Z,1009.64
2019-04-25T03:49:44.305Z,1009.64
2019-04-25T03:50:44.399Z,1009.60
2019-04-25T03:51:44.373Z,1009.63
2019-04-25T03:52:44.348Z,1009.61
2019-04-25T03:53:44.356Z,1009.53
2019-04-25T03:54:44.330Z,1009.48
2019-04-25T03:55:44.453Z,1009.45
2019-04-25T03:56:53.287Z,1009.42
2019-04-25T03:57:44.447Z,1009.37
2019-04-25T03:58:44.390Z,1009.39
2019-04-25T03:59:44.333Z,1009.36
2019-04-25T04:00:44.796Z,1009.29
2019-04-25T04:01:44.297Z,1009.18
2019-04-25T04:02:44.474Z,1009.23
2019-04-25T04:03:44.296Z,1009.19
2019-04-25T04:04:44.361Z,1009.13
2019-04-25T04:05:44.302Z,1009.08
2019-04-25T04:06:44.270Z,1008.99
2019-04-25T04:07:44.374Z,1008.96
2019-04-25T04:08:44.423Z,1008.89
2019-04-25T04:09:44.526Z,1008.93
2019-04-25T04:10:44.281Z,1008.95
2019-04-25T04:11:44.272Z,1008.91
2019-04-25T04:12:44.432Z,1008.97
2019-04-25T04:13:44.300Z,1008.99
2019-04-25T04:14:44.299Z,1009.02
2019-04-25T04:15:44.265Z,1009.07
2019-04-25T04:16:44.432Z,1009.07
2019-04-25T04:17:44.295Z,1009.07
2019-04-25T04:18:44.340Z,1009.17
2019-04-25T04:19:45.236Z,1009.09
2019-04-25T04:20:44.335Z,1009.12
2019-04-25T04:21:44.327Z,1009.14
2019-04-25T04:22:44.270Z,1009.14
2019-04-25T04:23:44.318Z,1009.14
2019-04-25T04:24:44.358Z,1009.12
2019-04-25T04:25:44.258Z,1009.13
2019-04-25T04:26:44.274Z,1009.18
2019-04-25T04:27:44.382Z,1009.19
2019-04-25T04:28:44.281Z,1009.19
2019-04-25T04:29:44.265Z,1009.17
2019-04-25T04:30:45.388Z,1009.19
2019-04-25T04:31:44.294Z,1009.20
2019-04-25T04:32:44.282Z,1009.27
2019-04-25T04:33:44.289Z,1009.35
2019-04-25T04:34:45.492Z,1009.43
2019-04-25T04:35:44.269Z,1009.46
2019-04-25T04:36:46.469Z,1009.49
2019-04-25T04:37:44.249Z,1009.56
2019-04-25T04:38:44.347Z,1009.61
2019-04-25T04:39:44.243Z,1009.74
2019-04-25T04:40:44.331Z,1009.76
2019-04-25T04:41:44.323Z,1009.84
2019-04-25T04:42:44.278Z,1009.88
2019-04-25T04:43:44.315Z,1009.98
2019-04-25T04:44:44.289Z,1010.07
2019-04-25T04:45:45.569Z,1010.09
2019-04-25T04:46:44.271Z,1010.23
2019-04-25T04:47:44.221Z,1010.32
2019-04-25T04:48:44.255Z,1010.36
2019-04-25T04:49:44.262Z,1010.33
2019-04-25T04:50:44.247Z,1010.33
2019-04-25T04:51:44.466Z,1010.41
2019-04-25T04:52:44.974Z,1010.44
2019-04-25T04:53:44.342Z,1010.43
2019-04-25T04:54:44.265Z,1010.48
2019-04-25T04:55:44.322Z,1010.51
2019-04-25T04:56:44.302Z,1010.48
2019-04-25T04:57:44.881Z,1010.50
2019-04-25T04:58:44.257Z,1010.55
2019-04-25T04:59:44.308Z,1010.51
2019-04-25T05:00:44.477Z,1010.53
2019-04-25T05:01:44.952Z,1010.54
2019-04-25T05:02:44.293Z,1010.58
2019-04-25T05:03:44.380Z,1010.52
2019-04-25T05:04:44.218Z,1010.51
2019-04-25T05:05:44.272Z,1010.48
2019-04-25T05:06:44.239Z,1010.47
2019-04-25T05:07:44.237Z,1010.42
2019-04-25T05:08:44.225Z,1010.42
2019-04-25T05:09:44.348Z,1010.36
2019-04-25T05:10:44.274Z,1010.34
2019-04-25T05:11:44.322Z,1010.36
2019-04-25T05:12:44.222Z,1010.36
2019-04-25T05:13:44.469Z,1010.33
2019-04-25T05:14:44.482Z,1010.31
2019-04-25T05:15:44.660Z,1010.27
2019-04-25T05:16:44.226Z,1010.32
2019-04-25T05:17:44.221Z,1010.33
2019-04-25T05:18:44.226Z,1010.28
2019-04-25T05:19:44.224Z,1010.25
2019-04-25T05:20:44.186Z,1010.19
2019-04-25T05:21:45.609Z,1010.14
2019-04-25T05:22:44.592Z,1010.11
2019-04-25T05:23:44.621Z,1010.07
2019-04-25T05:24:44.182Z,1010.03
2019-04-25T05:25:44.280Z,1010.02
2019-04-25T05:26:44.292Z,1010.00
2019-04-25T05:27:59.072Z,1009.93
2019-04-25T05:28:44.517Z,1009.90
2019-04-25T05:29:44.210Z,1009.86
2019-04-25T05:30:44.170Z,1009.85
2019-04-25T05:31:45.612Z,1009.82
2019-04-25T05:32:44.264Z,1009.77
2019-04-25T05:33:44.191Z,1009.75
2019-04-25T05:34:46.127Z,1009.75
2019-04-25T05:35:44.402Z,1009.72
2019-04-25T05:36:44.215Z,1009.70
2019-04-25T05:37:44.233Z,1009.64
2019-04-25T05:38:45.187Z,1009.63
2019-04-25T05:39:44.149Z,1009.56
2019-04-25T05:40:44.200Z,1009.52
2019-04-25T05:41:44.278Z,1009.55
2019-04-25T05:42:44.362Z,1009.50
2019-04-25T05:43:44.177Z,1009.50
2019-04-25T05:44:44.210Z,1009.51
2019-04-25T05:45:44.194Z,1009.49
2019-04-25T05:46:45.311Z,1009.42
2019-04-25T05:47:44.327Z,1009.42
2019-04-25T05:48:44.162Z,1009.40
2019-04-25T05:49:44.170Z,1009.40
2019-04-25T05:50:44.162Z,1009.37
2019-04-25T05:51:44.193Z,1009.39
2019-04-25T05:52:45.978Z,1009.43
2019-04-25T05:53:44.191Z,1009.43
2019-04-25T05:54:44.344Z,1009.43
2019-04-25T05:55:44.217Z,1009.45
2019-04-25T05:56:44.570Z,1009.47
2019-04-25T05:57:49.726Z,1009.48
2019-04-25T05:58:44.157Z,1009.46
2019-04-25T05:59:46.535Z,1009.51
2019-04-25T06:00:46.957Z,1009.51
2019-04-25T06:01:44.158Z,1009.54
2019-04-25T06:02:46.124Z,1009.60
2019-04-25T06:03:44.183Z,1009.60
2019-04-25T06:04:44.186Z,1009.64
2019-04-25T06:05:44.135Z,1009.66
2019-04-25T06:06:44.650Z,1009.73
2019-04-25T06:07:44.217Z,1009.73
2019-04-25T06:08:44.212Z,1009.77
2019-04-25T06:09:44.445Z,1009.78
2019-04-25T06:10:45.236Z,1009.84
2019-04-25T06:11:44.198Z,1009.94
2019-04-25T06:12:44.195Z,1009.94
2019-04-25T06:13:45.029Z,1009.97
2019-04-25T06:14:44.119Z,1009.95
2019-04-25T06:15:44.187Z,1009.99
2019-04-25T06:16:44.250Z,1010.04
2019-04-25T06:17:44.473Z,1010.07
2019-04-25T06:18:44.373Z,1010.08
2019-04-25T06:19:44.119Z,1010.11
2019-04-25T06:20:44.336Z,1010.12
2019-04-25T06:21:44.126Z,1010.15
2019-04-25T06:22:44.293Z,1010.16
2019-04-25T06:23:45.967Z,1010.16
2019-04-25T06:24:44.478Z,1010.17
2019-04-25T06:25:44.160Z,1010.13
2019-04-25T06:26:44.134Z,1010.12
2019-04-25T06:27:56.311Z,1010.08
2019-04-25T06:28:53.760Z,1010.07
2019-04-25T06:29:44.121Z,1010.08
2019-04-25T06:30:44.354Z,1010.07
2019-04-25T06:31:44.186Z,1010.09
2019-04-25T06:32:44.378Z,1010.10
2019-04-25T06:33:44.199Z,1010.12
2019-04-25T06:34:44.425Z,1010.08
2019-04-25T06:35:44.257Z,1010.09
2019-04-25T06:36:44.126Z,1010.10
2019-04-25T06:37:44.097Z,1010.15
2019-04-25T06:38:44.394Z,1010.11
2019-04-25T06:39:44.323Z,1010.09
2019-04-25T06:40:44.147Z,1010.05
2019-04-25T06:41:44.227Z,1010.06
2019-04-25T06:42:46.540Z,1010.06
2019-04-25T06:43:44.343Z,1010.08
2019-04-25T06:44:44.085Z,1010.03
2019-04-25T06:45:44.258Z,1009.99
2019-04-25T06:46:44.197Z,1009.95
2019-04-25T06:47:44.328Z,1009.99
2019-04-25T06:48:45.539Z,1010.00
2019-04-25T06:49:44.106Z,1009.98
2019-04-25T06:50:44.137Z,1009.95
2019-04-25T06:51:46.084Z,1009.91
2019-04-25T06:52:44.051Z,1009.94
2019-04-25T06:53:44.119Z,1009.94
2019-04-25T06:54:44.079Z,1009.92
2019-04-25T06:55:45.019Z,1009.91
2019-04-25T06:56:44.079Z,1009.95
2019-04-25T06:57:44.175Z,1009.93
2019-04-25T06:58:44.195Z,1009.92
2019-04-25T06:59:44.068Z,1009.96
2019-04-25T07:00:57.596Z,1009.96
2019-04-25T07:01:44.231Z,1009.92
2019-04-25T07:02:44.278Z,1009.99
2019-04-25T07:03:44.249Z,1010.00
2019-04-25T07:04:45.699Z,1010.00
2019-04-25T07:05:44.112Z,1010.03
2019-04-25T07:06:45.480Z,1010.04
2019-04-25T07:07:45.428Z,1009.99
2019-04-25T07:08:44.778Z,1010.00
2019-04-25T07:09:44.115Z,1010.04
2019-04-25T07:10:44.598Z,1010.06
2019-04-25T07:11:44.208Z,1010.04
2019-04-25T07:12:44.404Z,1010.05
2019-04-25T07:13:44.035Z,1010.04
2019-04-25T07:14:44.113Z,1010.02
2019-04-25T07:15:44.065Z,1010.04
2019-04-25T07:16:44.086Z,1009.95
2019-04-25T07:17:45.696Z,1009.96
2019-04-25T07:18:44.091Z,1009.89
2019-04-25T07:19:44.201Z,1009.89
2019-04-25T07:20:45.308Z,1009.88
2019-04-25T07:21:44.430Z,1009.84
2019-04-25T07:22:44.133Z,1009.80
2019-04-25T07:23:46.303Z,1009.75
2019-04-25T07:24:44.108Z,1009.71
2019-04-25T07:25:44.070Z,1009.71
2019-04-25T07:26:44.270Z,1009.64
2019-04-25T07:27:44.792Z,1009.63
2019-04-25T07:28:44.102Z,1009.61
2019-04-25T07:29:44.079Z,1009.64
2019-04-25T07:30:50.225Z,1009.64
2019-04-25T07:31:44.308Z,1009.60
2019-04-25T07:32:44.061Z,1009.60
2019-04-25T07:33:44.089Z,1009.58
2019-04-25T07:34:43.993Z,1009.61
2019-04-25T07:35:44.022Z,1009.63
2019-04-25T07:36:45.541Z,1009.64
2019-04-25T07:37:44.222Z,1009.62
2019-04-25T07:38:44.798Z,1009.61
2019-04-25T07:39:44.277Z,1009.66
2019-04-25T07:40:44.055Z,1009.63
2019-04-25T07:41:44.223Z,1009.62
2019-04-25T07:42:44.011Z,1009.59
2019-04-25T07:43:44.015Z,1009.59
2019-04-25T07:44:52.014Z,1009.56
2019-04-25T07:45:44.084Z,1009.55
2019-04-25T07:46:44.031Z,1009.59
2019-04-25T07:47:44.232Z,1009.56
2019-04-25T07:48:43.998Z,1009.55
2019-04-25T07:49:44.029Z,1009.54
2019-04-25T07:50:44.035Z,1009.51
2019-04-25T07:51:45.364Z,1009.50
2019-04-25T07:52:44.360Z,1009.48
2019-04-25T07:53:44.011Z,1009.46
2019-04-25T07:54:44.094Z,1009.43
2019-04-25T07:55:43.957Z,1009.41
2019-04-25T07:56:43.998Z,1009.39
2019-04-25T07:57:44.361Z,1009.40
2019-04-25T07:58:49.260Z,1009.40
2019-04-25T07:59:44.058Z,1009.34
2019-04-25T08:00:44.072Z,1009.37
2019-04-25T08:01:44.001Z,1009.38
2019-04-25T08:02:44.065Z,1009.36
2019-04-25T08:03:44.026Z,1009.37
2019-04-25T08:04:44.331Z,1009.42
2019-04-25T08:05:44.070Z,1009.42
2019-04-25T08:06:44.650Z,1009.45
2019-04-25T08:07:43.975Z,1009.41
2019-04-25T08:08:44.049Z,1009.38
2019-04-25T08:09:44.344Z,1009.36
2019-04-25T08:10:45.354Z,1009.37
2019-04-25T08:11:44.037Z,1009.36
2019-04-25T08:12:44.124Z,1009.41
2019-04-25T08:13:43.950Z,1009.39
2019-04-25T08:14:45.805Z,1009.39
2019-04-25T08:15:44.022Z,1009.41
2019-04-25T08:16:44.293Z,1009.43
2019-04-25T08:17:44.185Z,1009.45
2019-04-25T08:18:43.967Z,1009.41
2019-04-25T08:19:44.319Z,1009.39
2019-04-25T08:20:44.018Z,1009.43
2019-04-25T08:21:45.109Z,1009.45
2019-04-25T08:22:55.821Z,1009.47
2019-04-25T08:23:44.007Z,1009.49
2019-04-25T08:24:44.102Z,1009.52
2019-04-25T08:25:44.202Z,1009.51
2019-04-25T08:26:43.980Z,1009.47
2019-04-25T08:27:45.061Z,1009.47
2019-04-25T08:28:55.025Z,1009.43
2019-04-25T08:29:45.540Z,1009.44
2019-04-25T08:30:43.982Z,1009.44
2019-04-25T08:31:45.213Z,1009.42
2019-04-25T08:32:44.120Z,1009.40
2019-04-25T08:33:46.598Z,1009.35
2019-04-25T08:34:44.721Z,1009.41
2019-04-25T08:36:03.040Z,1009.40
2019-04-25T08:36:45.594Z,1009.33
2019-04-25T08:37:44.175Z,1009.33
2019-04-25T08:38:44.731Z,1009.33
2019-04-25T08:39:45.106Z,1009.27
2019-04-25T08:40:44.166Z,1009.28
2019-04-25T08:41:45.580Z,1009.28
2019-04-25T08:42:44.835Z,1009.25
2019-04-25T08:43:45.494Z,1009.26
2019-04-25T08:44:44.892Z,1009.23
2019-04-25T08:45:44.273Z,1009.25
2019-04-25T08:46:44.620Z,1009.21
2019-04-25T08:47:44.006Z,1009.26
2019-04-25T08:48:44.404Z,1009.25
2019-04-25T08:49:45.728Z,1009.26
2019-04-25T08:50:44.483Z,1009.25
2019-04-25T08:51:44.515Z,1009.22
2019-04-25T08:52:44.280Z,1009.20
2019-04-25T08:53:45.041Z,1009.18
2019-04-25T08:54:45.727Z,1009.18
2019-04-25T08:55:45.579Z,1009.18
2019-04-25T08:56:44.126Z,1009.11
2019-04-25T08:57:44.525Z,1009.09
2019-04-25T08:58:44.582Z,1009.04
2019-04-25T08:59:49.394Z,1009.07
2019-04-25T09:00:44.700Z,1009.04
2019-04-25T09:02:44.808Z,1009.05
2019-04-25T09:03:44.350Z,1009.09
2019-04-25T09:04:44.601Z,1009.08
2019-04-25T09:05:45.882Z,1009.06
2019-04-25T09:06:44.287Z,1009.07
2019-04-25T09:07:44.510Z,1009.01
2019-04-25T09:08:46.360Z,1009.02
2019-04-25T09:09:45.115Z,1009.00
2019-04-25T09:10:44.879Z,1009.01
2019-04-25T09:11:46.895Z,1009.00
2019-04-25T09:12:44.302Z,1009.04
2019-04-25T09:13:44.971Z,1008.97
2019-04-25T09:14:45.077Z,1008.96
2019-04-25T09:15:45.572Z,1009.00
2019-04-25T09:16:44.870Z,1009.02
2019-04-25T09:17:44.501Z,1008.99
2019-04-25T09:18:44.355Z,1009.04
2019-04-25T09:19:44.436Z,1008.99
2019-04-25T09:20:46.489Z,1008.98
2019-04-25T09:21:48.117Z,1008.95
2019-04-25T09:22:44.591Z,1008.98
2019-04-25T09:23:44.843Z,1008.95
2019-04-25T09:24:44.432Z,1008.90
2019-04-25T09:25:45.959Z,1008.93
2019-04-25T09:26:45.296Z,1008.90
2019-04-25T09:27:45.530Z,1008.89
2019-04-25T09:28:45.423Z,1008.96
2019-04-25T09:29:45.234Z,1008.89
2019-04-25T09:30:44.859Z,1008.93
2019-04-25T09:31:45.140Z,1008.88
2019-04-25T09:32:44.579Z,1008.83
2019-04-25T09:33:45.534Z,1008.83
2019-04-25T09:34:43.861Z,1008.81
2019-04-25T09:35:45.710Z,1008.73
2019-04-25T09:36:44.973Z,1008.66
2019-04-25T09:37:44.946Z,1008.60
2019-04-25T09:38:46.978Z,1008.59
2019-04-25T09:39:44.358Z,1008.58
2019-04-25T09:40:44.529Z,1008.63
2019-04-25T09:41:44.756Z,1008.64
2019-04-25T09:42:45.073Z,1008.59
2019-04-25T09:43:45.602Z,1008.52
2019-04-25T09:44:44.209Z,1008.48
2019-04-25T09:45:44.863Z,1008.48
2019-04-25T09:46:46.519Z,1008.42
2019-04-25T09:47:44.836Z,1008.41
2019-04-25T09:48:44.605Z,1008.42
2019-04-25T09:49:44.844Z,1008.35
2019-04-25T09:50:45.109Z,1008.30
2019-04-25T09:51:44.591Z,1008.25
2019-04-25T09:52:44.368Z,1008.28
2019-04-25T09:53:49.604Z,1008.23
2019-04-25T09:54:44.892Z,1008.24
2019-04-25T09:55:46.819Z,1008.17
2019-04-25T09:56:45.107Z,1008.17
2019-04-25T09:57:44.607Z,1008.12
2019-04-25T09:58:46.999Z,1008.10
2019-04-25T09:59:45.057Z,1008.09
2019-04-25T10:00:44.841Z,1008.03
2019-04-25T10:01:44.820Z,1007.99
2019-04-25T10:02:44.575Z,1007.95
2019-04-25T10:03:44.506Z,1007.92
2019-04-25T10:04:45.225Z,1007.92
2019-04-25T10:05:44.699Z,1007.91
2019-04-25T10:06:45.003Z,1007.92
2019-04-25T10:07:46.216Z,1007.87
2019-04-25T10:08:45.379Z,1007.90
2019-04-25T10:09:44.732Z,1007.82
2019-04-25T10:10:44.640Z,1007.83
2019-04-25T10:11:45.065Z,1007.80
2019-04-25T10:12:47.445Z,1007.79
2019-04-25T10:13:44.785Z,1007.70
2019-04-25T10:14:45.240Z,1007.67
2019-04-25T10:15:44.738Z,1007.67
2019-04-25T10:16:44.485Z,1007.64
2019-04-25T10:17:44.993Z,1007.60
2019-04-25T10:18:44.625Z,1007.58
2019-04-25T10:19:43.803Z,1007.50
2019-04-25T10:20:45.217Z,1007.47
2019-04-25T10:21:43.887Z,1007.47
2019-04-25T10:22:44.583Z,1007.42
2019-04-25T10:23:45.382Z,1007.41
2019-04-25T10:24:56.505Z,1007.41
2019-04-25T10:25:44.177Z,1007.43
2019-04-25T10:26:45.119Z,1007.40
2019-04-25T10:27:46.461Z,1007.33
2019-04-25T10:28:44.162Z,1007.29
2019-04-25T10:29:52.756Z,1007.26
2019-04-25T10:30:43.757Z,1007.25
2019-04-25T10:31:44.331Z,1007.29
2019-04-25T10:32:44.274Z,1007.23
2019-04-25T10:33:45.570Z,1007.25
2019-04-25T10:34:45.145Z,1007.24
2019-04-25T10:35:52.059Z,1007.24
2019-04-25T10:36:45.293Z,1007.26
2019-04-25T10:37:45.321Z,1007.19
2019-04-25T10:38:46.274Z,1007.18
2019-04-25T10:39:44.715Z,1007.18
2019-04-25T10:40:45.156Z,1007.17
2019-04-25T10:41:46.097Z,1007.15
2019-04-25T10:42:46.500Z,1007.09
2019-04-25T10:43:44.017Z,1007.10
2019-04-25T10:44:45.782Z,1007.10
2019-04-25T10:45:44.775Z,1007.09
2019-04-25T10:46:46.868Z,1007.11
2019-04-25T10:47:44.291Z,1007.09
2019-04-25T10:48:44.051Z,1007.08
2019-04-25T10:49:44.967Z,1007.07
2019-04-25T10:50:45.204Z,1007.02
2019-04-25T10:51:44.667Z,1006.99
2019-04-25T10:52:45.518Z,1007.01
2019-04-25T10:53:45.627Z,1006.96
2019-04-25T10:54:45.250Z,1006.97
2019-04-25T10:55:43.753Z,1006.89
2019-04-25T10:56:45.692Z,1006.95
2019-04-25T10:57:45.507Z,1006.94
2019-04-25T10:58:45.685Z,1006.95
2019-04-25T10:59:57.914Z,1006.85
2019-04-25T11:00:46.109Z,1006.80
2019-04-25T11:01:45.057Z,1006.76
2019-04-25T11:02:45.296Z,1006.66
2019-04-25T11:03:44.545Z,1006.69
2019-04-25T11:04:44.577Z,1006.63
2019-04-25T11:05:43.775Z,1006.62
2019-04-25T11:06:45.366Z,1006.65
2019-04-25T11:07:44.485Z,1006.64
2019-04-25T11:08:43.746Z,1006.63
2019-04-25T11:09:45.200Z,1006.63
2019-04-25T11:10:44.452Z,1006.61
2019-04-25T11:11:43.742Z,1006.66
2019-04-25T11:12:44.319Z,1006.57
2019-04-25T11:13:45.280Z,1006.54
2019-04-25T11:14:44.307Z,1006.52
2019-04-25T11:15:44.873Z,1006.51
2019-04-25T11:16:45.293Z,1006.47
2019-04-25T11:17:45.836Z,1006.47
2019-04-25T11:18:45.028Z,1006.44
2019-04-25T11:19:44.556Z,1006.45
2019-04-25T11:20:44.605Z,1006.39
2019-04-25T11:21:45.637Z,1006.40
2019-04-25T11:22:44.837Z,1006.42
2019-04-25T11:23:46.951Z,1006.37
2019-04-25T11:24:43.848Z,1006.36
2019-04-25T11:25:45.252Z,1006.38
2019-04-25T11:26:47.129Z,1006.37
2019-04-25T11:27:46.634Z,1006.39
2019-04-25T11:28:45.354Z,1006.39
2019-04-25T11:29:44.802Z,1006.41
2019-04-25T11:30:45.338Z,1006.44
2019-04-25T11:31:44.870Z,1006.42
2019-04-25T11:32:45.157Z,1006.40
2019-04-25T11:33:43.999Z,1006.38
2019-04-25T11:34:44.960Z,1006.35
2019-04-25T11:35:46.460Z,1006.31
2019-04-25T11:36:44.010Z,1006.30
2019-04-25T11:37:43.802Z,1006.32
2019-04-25T11:38:43.704Z,1006.33
2019-04-25T11:39:45.039Z,1006.33
2019-04-25T11:40:47.832Z,1006.32
2019-04-25T11:41:46.095Z,1006.36
2019-04-25T11:42:45.954Z,1006.35
2019-04-25T11:43:46.243Z,1006.25
2019-04-25T11:44:45.554Z,1006.27
2019-04-25T11:45:43.722Z,1006.27
2019-04-25T11:46:45.310Z,1006.29
2019-04-25T11:47:45.835Z,1006.28
2019-04-25T11:48:44.390Z,1006.27
2019-04-25T11:49:46.106Z,1006.28
2019-04-25T11:50:47.236Z,1006.27
2019-04-25T11:51:45.073Z,1006.25
2019-04-25T11:52:43.781Z,1006.26
2019-04-25T11:53:45.053Z,1006.27
2019-04-25T11:54:45.801Z,1006.25
2019-04-25T11:55:44.820Z,1006.26
2019-04-25T11:56:46.307Z,1006.20
2019-04-25T11:57:47.376Z,1006.26
2019-04-25T11:58:45.595Z,1006.27
2019-04-25T11:59:45.298Z,1006.25
2019-04-25T12:00:45.787Z,1006.20
2019-04-25T12:01:45.348Z,1006.16
2019-04-25T12:02:44.018Z,1006.12
2019-04-25T12:03:45.338Z,1006.11
2019-04-25T12:04:45.513Z,1006.15
2019-04-25T12:05:45.826Z,1006.09
2019-04-25T12:06:45.736Z,1006.11